EDT,Max TemperatureF,Mean TemperatureF,Min TemperatureF,Max Dew PointF,MeanDew PointF,Min DewpointF,Max Humidity, Mean Humidity, Min Humidity, Max Sea Level PressureIn, Mean Sea Level PressureIn, Min Sea Level PressureIn, Max VisibilityMiles, Mean VisibilityMiles, Min VisibilityMiles, Max Wind SpeedMPH, Mean Wind SpeedMPH, Max Gust SpeedMPH,PrecipitationIn, CloudCover, Events, WindDirDegrees
2012-9-1,89,76,64,70,64,55,100,75,33,30.07,30.03,29.98,10,10,8,10,2,,0.00,0,,276
2012-9-2,77,72,66,73,72,68,100,96,78,30.10,30.07,30.04,10,8,4,8,1,,0.00,6,,121
2012-9-3,73,70,68,73,72,70,100,100,100,30.14,30.10,30.08,10,6,1,8,2,,0.41,8,,90
2012-9-4,82,75,68,77,76,75,100,94,79,30.10,29.98,29.86,10,7,0,9,1,21,0.95,6,,135
2012-9-5,82,72,62,75,71,66,100,88,69,29.88,29.84,29.81,10,10,6,9,3,,0.00,4,,238
2012-9-6,80,70,59,73,69,66,100,80,65,29.94,29.91,29.88,10,10,5,5,0,,0.00,0,,175
2012-9-7,86,76,66,75,71,68,100,76,55,29.96,29.92,29.86,10,7,0,6,0,,0.04,1,,165
2012-9-8,82,72,62,75,73,64,100,87,70,29.88,29.76,29.61,10,8,1,13,2,28,0.43,5,,158
2012-9-9,75,65,55,63,57,50,100,75,41,29.95,29.87,29.81,10,10,6,8,1,,0.00,2,,227
2012-9-10,71,60,48,57,49,41,100,69,38,30.17,30.05,29.95,10,10,10,13,3,20,0.00,1,,283
2012-9-11,73,57,41,57,48,45,100,68,36,30.31,30.26,30.18,10,10,10,7,0,,0.00,0,,270
2012-9-12,77,60,44,59,53,48,100,63,36,30.39,30.35,30.31,10,10,9,7,0,,0.00,0,,172
2012-9-13,77,62,48,63,57,54,100,68,44,30.40,30.35,30.29,10,10,3,8,1,,0.00,0,,169
2012-9-14,77,62,48,64,59,55,100,72,47,30.31,30.22,30.11,10,10,8,7,1,,0.00,0,,165
2012-9-15,71,60,50,63,51,45,100,73,40,30.20,30.15,30.11,10,10,5,15,5,23,0.00,1,,288
2012-9-16,73,60,46,55,49,41,100,69,33,30.16,30.12,30.07,10,10,9,8,1,,0.00,1,,213
2012-9-17,75,60,44,64,52,45,100,63,36,30.14,30.09,30.03,10,10,9,12,1,,0.00,1,,161
2012-9-18,73,68,64,73,70,64,100,99,94,30.02,29.78,29.60,10,7,1,20,5,32,2.87,8,,146
2012-9-19,68,57,46,59,48,41,100,71,40,30.20,30.04,29.77,10,10,2,13,3,18,0.02,3,,274
2012-9-20,69,55,41,55,50,45,100,68,43,30.21,30.16,30.10,10,10,9,8,1,,0.00,1,,130
2012-9-21,73,62,50,63,59,55,100,75,53,30.12,30.07,30.02,10,7,0,8,1,,0.00,4,,125
2012-9-22,78,68,57,68,64,57,100,85,57,30.02,29.89,29.79,10,10,5,12,2,16,0.02,5,,163
2012-9-23,66,56,46,57,45,37,100,70,37,30.15,30.06,29.90,10,10,4,10,2,17,0.00,1,,258
2012-9-24,64,53,41,48,43,36,100,75,37,30.22,30.16,30.13,10,10,10,10,2,,0.00,2,,226
2012-9-25,71,54,37,55,48,41,100,64,40,30.21,30.16,30.13,10,10,10,14,2,18,0.00,0,,169
2012-9-26,75,66,57,66,61,54,100,90,64,30.13,30.09,30.04,10,10,7,8,2,,0.00,4,,184
2012-9-27,71,65,59,68,64,63,100,90,73,30.19,30.15,30.08,10,8,2,8,0,,0.00,3,,330
2012-9-28,73,68,60,70,65,61,100,90,73,30.14,30.03,29.96,10,7,1,8,1,,0.05,6,,178
2012-9-29,62,58,53,59,54,48,100,89,59,29.98,29.95,29.90,10,10,8,9,1,,0.00,7,,291
2012-9-30,66,56,46,54,48,45,100,72,49,29.91,29.86,29.80,10,10,10,8,1,,0.00,2,,223